Fredericktown, Pennsylvania
Current Conditions -  °F | °C
As of 3:15 AM on Sunday 26 Oct 2014 (Local Time) from KAFJ Reporting Station
Clear Clear  
Wind Chill: 44°   Ceiling: Unl
Heat Index: 46°   Visibility: 10mi
Dew Point: 32°   Wind: 5mph
Humidity: 57%   Direction: 250°WSW
Pressure: 29.83"   Gusts: NA
Location:  40°N, 80°W
Report Text: KAFJ 260715Z AUTO 25004KT 10SM CLR 08/00 A2983 RMK AO1
Loading
Personal Weather Stations






























Interactive Weather Map
Tropical Storm Tracking
New forecast layout! Learn more

10-Day Weather Forecast

Advertisements
Track Severe Weather on mobile